Time;durP1;ratioP1;P1;durP2;ratioP2;P2;SDS_P1;SDS_P2;PMS_P1;PMS_P2;Temp;Humidity;BMP_temperature;BMP_pressure;BME280_temperature;BME280_humidity;BME280_pressure;Samples;Min_cycle;Max_cycle;Signal;HPM_P1;HPM_P2
2023/02/11 00:00:37;;;;;;;;;;;5.20;99.90;;;;;;5010680;28;19929;-75
2023/02/11 00:03:04;;;;;;;;;;;5.20;99.90;;;;;;5016586;28;19926;-76
2023/02/11 00:05:31;;;;;;;;;;;5.20;99.90;;;;;;4992877;28;20371;-75
2023/02/11 00:07:57;;;;;;;;;;;5.20;99.90;;;;;;4990765;28;19926;-74
2023/02/11 00:10:24;;;;;;;;;;;5.20;99.90;;;;;;5011901;28;19929;-73
2023/02/11 00:12:50;;;;;;;;;;;5.20;99.90;;;;;;5013750;28;19927;-75
2023/02/11 00:15:17;;;;;;;;;;;5.30;99.90;;;;;;4981124;28;20024;-75
2023/02/11 00:17:44;;;;;;;;;;;5.30;99.90;;;;;;5011663;28;19941;-76
2023/02/11 00:20:10;;;;;;;;;;;5.30;99.90;;;;;;5014360;28;19925;-75
2023/02/11 00:22:37;;;;;;;;;;;5.30;99.90;;;;;;5012228;28;19925;-75
2023/02/11 00:25:03;;;;;;;;;;;5.30;99.90;;;;;;5013894;28;19936;-74
2023/02/11 00:27:30;;;;;;;;;;;5.30;99.90;;;;;;5003643;28;19976;-76
2023/02/11 00:29:59;;;;;;;;;;;5.30;99.90;;;;;;4999207;28;20242;-73
2023/02/11 00:32:25;;;;;;;;;;;5.30;99.90;;;;;;4992756;28;19939;-74
2023/02/11 00:34:54;;;;;;;;;;;5.30;99.90;;;;;;5014637;28;19932;-74
2023/02/11 00:37:21;;;;;;;;;;;5.30;99.90;;;;;;5011716;28;20020;-75
2023/02/11 00:39:48;;;;;;;;;;;5.30;99.90;;;;;;5013697;28;19932;-74
2023/02/11 00:42:15;;;;;;;;;;;5.30;99.90;;;;;;5012195;28;19925;-74
2023/02/11 00:44:43;;;;;;;;;;;5.30;99.90;;;;;;5003395;28;20403;-73
2023/02/11 00:47:10;;;;;;;;;;;5.30;99.90;;;;;;4995947;28;19973;-74
2023/02/11 00:49:39;;;;;;;;;;;5.30;99.90;;;;;;5011577;28;19925;-75
2023/02/11 00:52:05;;;;;;;;;;;5.20;99.90;;;;;;5002778;28;19941;-75
2023/02/11 00:54:33;;;;;;;;;;;5.20;99.90;;;;;;5005791;28;19929;-75
2023/02/11 00:56:59;;;;;;;;;;;5.20;99.90;;;;;;5001927;28;20431;-75
2023/02/11 00:59:26;;;;;;;;;;;5.20;99.90;;;;;;5001696;28;19981;-74
2023/02/11 01:01:53;;;;;;;;;;;5.20;99.90;;;;;;4996937;28;20016;-74
2023/02/11 01:04:19;;;;;;;;;;;5.10;99.90;;;;;;5010501;28;19925;-76
2023/02/11 01:06:46;;;;;;;;;;;5.10;99.90;;;;;;5013524;28;19929;-75
2023/02/11 01:09:12;;;;;;;;;;;5.10;99.90;;;;;;5001837;28;19929;-75
2023/02/11 01:11:39;;;;;;;;;;;5.00;99.90;;;;;;4997135;28;19925;-74
2023/02/11 01:14:06;;;;;;;;;;;5.00;99.90;;;;;;4996228;28;19929;-74
2023/02/11 01:16:32;;;;;;;;;;;5.00;99.90;;;;;;5011378;28;20404;-75
2023/02/11 01:18:59;;;;;;;;;;;4.90;99.90;;;;;;4998202;28;19976;-74
2023/02/11 01:21:26;;;;;;;;;;;4.90;99.90;;;;;;5008526;28;19929;-74
2023/02/11 01:23:52;;;;;;;;;;;4.90;99.90;;;;;;4981814;28;20537;-74
2023/02/11 01:26:19;;;;;;;;;;;4.80;99.90;;;;;;5007037;28;19929;-75
2023/02/11 01:28:45;;;;;;;;;;;4.80;99.90;;;;;;5011556;28;19933;-75
2023/02/11 01:31:12;;;;;;;;;;;4.80;99.90;;;;;;5012657;28;19926;-75
2023/02/11 01:33:39;;;;;;;;;;;4.80;99.90;;;;;;5008050;28;19930;-75
2023/02/11 01:36:06;;;;;;;;;;;4.70;99.90;;;;;;5016654;28;19964;-75
2023/02/11 01:38:33;;;;;;;;;;;4.70;99.90;;;;;;5006691;28;20017;-76
2023/02/11 01:41:01;;;;;;;;;;;4.70;99.90;;;;;;5017990;28;20569;-76
2023/02/11 01:43:32;;;;;;;;;;;4.70;99.90;;;;;;5006203;28;20020;-76
2023/02/11 01:46:00;;;;;;;;;;;4.70;99.90;;;;;;4997440;28;20016;-77
2023/02/11 01:48:27;;;;;;;;;;;4.70;99.90;;;;;;5005476;28;19933;-77
2023/02/11 01:50:55;;;;;;;;;;;4.70;99.90;;;;;;5000936;28;19957;-76
2023/02/11 01:58:58;;;;;;;;;;;4.60;99.90;;;;;;5003683;28;20000;-77
2023/02/11 02:01:25;;;;;;;;;;;4.60;99.90;;;;;;5008709;28;20016;-77
2023/02/11 02:03:54;;;;;;;;;;;4.60;99.90;;;;;;4997150;28;20007;-77
2023/02/11 02:06:25;;;;;;;;;;;4.60;99.90;;;;;;4994473;28;19949;-77
2023/02/11 02:08:56;;;;;;;;;;;4.60;99.90;;;;;;4994145;28;20032;-77
2023/02/11 02:11:23;;;;;;;;;;;4.50;99.90;;;;;;4991324;28;20376;-77
2023/02/11 02:13:50;;;;;;;;;;;4.50;99.90;;;;;;5002369;28;19976;-76
2023/02/11 02:16:21;;;;;;;;;;;4.60;99.90;;;;;;5010231;28;19925;-77
2023/02/11 02:19:00;;;;;;;;;;;4.60;99.90;;;;;;5001741;28;19932;-76
2023/02/11 02:21:45;;;;;;;;;;;4.50;99.90;;;;;;4993713;28;19930;-77
2023/02/11 02:24:24;;;;;;;;;;;4.50;99.90;;;;;;4991050;28;19965;-76
2023/02/11 02:27:00;;;;;;;;;;;4.50;99.90;;;;;;5009801;28;19936;-77
2023/02/11 02:29:27;;;;;;;;;;;4.50;99.90;;;;;;4994754;28;19968;-77
2023/02/11 02:32:12;;;;;;;;;;;4.50;99.90;;;;;;4996282;28;20091;-77
2023/02/11 02:34:42;;;;;;;;;;;4.50;99.90;;;;;;4992705;28;19926;-76
2023/02/11 02:37:16;;;;;;;;;;;4.50;99.90;;;;;;5012548;28;19932;-76
2023/02/11 02:39:44;;;;;;;;;;;4.50;99.90;;;;;;5009355;28;19971;-77
2023/02/11 02:42:11;;;;;;;;;;;4.50;99.90;;;;;;5013006;28;19952;-76
2023/02/11 02:44:38;;;;;;;;;;;4.50;99.90;;;;;;5010464;28;19964;-76
2023/02/11 02:47:04;;;;;;;;;;;4.50;99.90;;;;;;5008713;28;20355;-76
2023/02/11 02:49:31;;;;;;;;;;;4.50;99.90;;;;;;5007606;28;20390;-77
2023/02/11 02:52:02;;;;;;;;;;;4.40;99.90;;;;;;5000407;28;19930;-76
2023/02/11 02:54:32;;;;;;;;;;;4.40;99.90;;;;;;4999942;28;19926;-77
2023/02/11 02:57:08;;;;;;;;;;;4.40;99.90;;;;;;4993388;28;19947;-77
2023/02/11 02:59:46;;;;;;;;;;;4.40;99.90;;;;;;5010074;28;19926;-76
2023/02/11 03:02:17;;;;;;;;;;;4.40;99.90;;;;;;4993554;28;19933;-76
2023/02/11 03:04:50;;;;;;;;;;;4.40;99.90;;;;;;5011439;28;19933;-77
2023/02/11 03:07:26;;;;;;;;;;;4.40;99.90;;;;;;5007939;28;19930;-77
2023/02/11 03:09:59;;;;;;;;;;;4.40;99.90;;;;;;5008933;28;20206;-77
2023/02/11 03:12:28;;;;;;;;;;;4.40;99.90;;;;;;4990052;28;19925;-77
2023/02/11 03:14:55;;;;;;;;;;;4.40;99.90;;;;;;4995768;28;19929;-77
2023/02/11 03:17:22;;;;;;;;;;;4.40;99.90;;;;;;4995248;28;19925;-77
2023/02/11 03:19:49;;;;;;;;;;;4.40;99.90;;;;;;4995851;28;19933;-77
2023/02/11 03:22:17;;;;;;;;;;;4.40;99.90;;;;;;5009012;28;20277;-77
2023/02/11 03:24:44;;;;;;;;;;;4.30;99.90;;;;;;4993695;28;19933;-77
2023/02/11 03:27:19;;;;;;;;;;;4.40;99.90;;;;;;5008734;28;19930;-76
2023/02/11 03:29:53;;;;;;;;;;;4.40;99.90;;;;;;5008108;28;20470;-77
2023/02/11 03:32:25;;;;;;;;;;;4.40;99.90;;;;;;4994615;28;19933;-77
2023/02/11 03:34:54;;;;;;;;;;;4.30;99.90;;;;;;4991293;28;20443;-77
2023/02/11 03:37:22;;;;;;;;;;;4.30;99.90;;;;;;4997084;28;19930;-77
2023/02/11 03:39:58;;;;;;;;;;;4.30;99.90;;;;;;4987663;28;20402;-77
2023/02/11 03:42:26;;;;;;;;;;;4.40;99.90;;;;;;4997752;28;19926;-77
2023/02/11 03:44:57;;;;;;;;;;;4.30;99.90;;;;;;4999073;28;19925;-77
2023/02/11 03:47:25;;;;;;;;;;;4.40;99.90;;;;;;5010451;28;20366;-77
2023/02/11 03:49:52;;;;;;;;;;;4.30;99.90;;;;;;5009784;28;19933;-77
2023/02/11 03:52:19;;;;;;;;;;;4.30;99.90;;;;;;5010853;28;20303;-77
2023/02/11 03:54:47;;;;;;;;;;;4.30;99.90;;;;;;4996549;28;19926;-77
2023/02/11 03:57:14;;;;;;;;;;;4.30;99.90;;;;;;5010672;28;20313;-77
2023/02/11 03:59:54;;;;;;;;;;;4.30;99.90;;;;;;5009543;28;20400;-77
2023/02/11 04:02:23;;;;;;;;;;;4.30;99.90;;;;;;4996260;28;20256;-77
2023/02/11 04:04:49;;;;;;;;;;;4.30;99.90;;;;;;5008987;28;20394;-77
2023/02/11 04:07:16;;;;;;;;;;;4.30;99.90;;;;;;5009840;28;19939;-77
2023/02/11 04:09:42;;;;;;;;;;;4.30;99.90;;;;;;5011140;28;20108;-78
2023/02/11 04:12:09;;;;;;;;;;;4.30;99.90;;;;;;5010321;28;20365;-78
2023/02/11 04:14:36;;;;;;;;;;;4.30;99.90;;;;;;4997938;28;19933;-77
2023/02/11 04:17:02;;;;;;;;;;;4.30;99.90;;;;;;4995806;28;19925;-77
2023/02/11 04:19:29;;;;;;;;;;;4.30;99.90;;;;;;5011000;28;20020;-77
2023/02/11 04:21:56;;;;;;;;;;;4.30;99.90;;;;;;5002303;28;19937;-77
2023/02/11 04:24:22;;;;;;;;;;;4.30;99.90;;;;;;4996248;28;19925;-77
2023/02/11 04:26:49;;;;;;;;;;;4.30;99.90;;;;;;5011609;28;19933;-77
2023/02/11 04:29:15;;;;;;;;;;;4.30;99.90;;;;;;4995850;28;20275;-77
2023/02/11 04:31:42;;;;;;;;;;;4.30;99.90;;;;;;5007452;28;20221;-78
2023/02/11 04:34:08;;;;;;;;;;;4.30;99.90;;;;;;4998594;28;20378;-77
2023/02/11 04:36:35;;;;;;;;;;;4.30;99.90;;;;;;5013720;28;19925;-77
2023/02/11 04:39:03;;;;;;;;;;;4.30;99.90;;;;;;5003009;28;20617;-78
2023/02/11 04:41:29;;;;;;;;;;;4.30;99.90;;;;;;5013502;28;20375;-77
2023/02/11 04:43:56;;;;;;;;;;;4.30;99.90;;;;;;4979192;28;20410;-77
2023/02/11 04:46:22;;;;;;;;;;;4.40;99.90;;;;;;5012789;28;19973;-77
2023/02/11 04:48:52;;;;;;;;;;;4.30;99.90;;;;;;4995039;28;19926;-77
2023/02/11 04:51:18;;;;;;;;;;;4.30;99.90;;;;;;4994877;28;19939;-77
2023/02/11 04:53:45;;;;;;;;;;;4.30;99.90;;;;;;4993966;28;19933;-77
2023/02/11 04:56:13;;;;;;;;;;;4.40;99.90;;;;;;5010133;28;20005;-77
2023/02/11 04:58:39;;;;;;;;;;;4.40;99.90;;;;;;5010241;28;19933;-77
2023/02/11 05:01:06;;;;;;;;;;;4.40;99.90;;;;;;4996590;28;19932;-77
2023/02/11 05:03:33;;;;;;;;;;;4.40;99.90;;;;;;5012463;28;20814;-77
2023/02/11 05:05:59;;;;;;;;;;;4.40;99.90;;;;;;4998790;28;19926;-77
2023/02/11 05:08:26;;;;;;;;;;;4.40;99.90;;;;;;4995946;28;20024;-77
2023/02/11 05:10:52;;;;;;;;;;;4.40;99.90;;;;;;4977695;28;20126;-77
2023/02/11 05:13:19;;;;;;;;;;;4.40;99.90;;;;;;4997084;28;20307;-77
2023/02/11 05:15:45;;;;;;;;;;;4.40;99.90;;;;;;5013339;28;20697;-77
2023/02/11 05:18:13;;;;;;;;;;;4.40;99.90;;;;;;4996759;28;19926;-77
2023/02/11 05:20:41;;;;;;;;;;;4.40;99.90;;;;;;5003876;28;19933;-77
2023/02/11 05:23:07;;;;;;;;;;;4.40;99.90;;;;;;4997217;28;19932;-77
2023/02/11 05:25:34;;;;;;;;;;;4.40;99.90;;;;;;5012131;28;19941;-77
2023/02/11 05:28:01;;;;;;;;;;;4.40;99.90;;;;;;5013057;28;19936;-77
2023/02/11 05:30:27;;;;;;;;;;;4.40;99.90;;;;;;5008520;28;19953;-77
2023/02/11 05:32:54;;;;;;;;;;;4.50;99.90;;;;;;4995653;28;20189;-77
2023/02/11 05:35:21;;;;;;;;;;;4.40;99.90;;;;;;4998779;28;19926;-78
2023/02/11 05:37:47;;;;;;;;;;;4.40;99.90;;;;;;5011960;28;19936;-79
2023/02/11 05:40:14;;;;;;;;;;;4.40;99.90;;;;;;4988695;28;20300;-79
2023/02/11 05:42:41;;;;;;;;;;;4.50;99.90;;;;;;5013402;28;20318;-78
2023/02/11 05:45:08;;;;;;;;;;;4.50;99.90;;;;;;5009932;28;20306;-78
2023/02/11 05:47:35;;;;;;;;;;;4.50;99.90;;;;;;5007540;28;20524;-78
2023/02/11 05:50:02;;;;;;;;;;;4.50;99.90;;;;;;5005247;28;19925;-79
2023/02/11 05:52:28;;;;;;;;;;;4.50;99.90;;;;;;5005228;28;19930;-78
2023/02/11 05:54:55;;;;;;;;;;;4.50;99.90;;;;;;4995713;28;20323;-78
2023/02/11 05:57:21;;;;;;;;;;;4.50;99.90;;;;;;4999065;28;19927;-78
2023/02/11 05:59:48;;;;;;;;;;;4.50;99.90;;;;;;4992276;28;19934;-77
2023/02/11 06:02:15;;;;;;;;;;;4.50;99.90;;;;;;5003465;28;19926;-77
2023/02/11 06:04:43;;;;;;;;;;;4.50;99.90;;;;;;5013207;28;19985;-78
2023/02/11 06:07:09;;;;;;;;;;;4.50;99.90;;;;;;5016214;28;20397;-77
2023/02/11 06:09:36;;;;;;;;;;;4.50;99.90;;;;;;4996733;28;19988;-78
2023/02/11 06:12:03;;;;;;;;;;;4.50;99.90;;;;;;5006704;28;20358;-78
2023/02/11 06:14:33;;;;;;;;;;;4.50;99.90;;;;;;4996112;28;19936;-78
2023/02/11 06:17:00;;;;;;;;;;;4.40;99.90;;;;;;5011292;28;19933;-77
2023/02/11 06:19:26;;;;;;;;;;;4.50;99.90;;;;;;4998547;28;19952;-78
2023/02/11 06:21:54;;;;;;;;;;;4.40;99.90;;;;;;5011201;28;19948;-77
2023/02/11 06:24:21;;;;;;;;;;;4.50;99.90;;;;;;5005773;28;19956;-77
2023/02/11 06:27:07;;;;;;;;;;;4.40;99.90;;;;;;5010479;28;19926;-77
2023/02/11 06:29:34;;;;;;;;;;;4.50;99.90;;;;;;4996736;28;19925;-77
2023/02/11 06:32:00;;;;;;;;;;;4.40;99.90;;;;;;5010012;28;20344;-77
2023/02/11 06:34:27;;;;;;;;;;;4.40;99.90;;;;;;5002822;28;20291;-76
2023/02/11 06:36:54;;;;;;;;;;;4.40;99.90;;;;;;4998895;28;20072;-77
2023/02/11 06:39:20;;;;;;;;;;;4.50;99.90;;;;;;5010397;28;20299;-77
2023/02/11 06:41:47;;;;;;;;;;;4.40;99.90;;;;;;4995314;28;19969;-77
2023/02/11 06:44:13;;;;;;;;;;;4.50;99.90;;;;;;4998776;28;19944;-78
2023/02/11 06:46:40;;;;;;;;;;;4.50;99.90;;;;;;5003642;28;19937;-79
2023/02/11 06:49:06;;;;;;;;;;;4.50;99.90;;;;;;4997414;28;19957;-78
2023/02/11 06:51:33;;;;;;;;;;;4.50;99.90;;;;;;5009126;28;20413;-79
2023/02/11 06:54:00;;;;;;;;;;;4.40;99.90;;;;;;5012716;28;20095;-79
2023/02/11 06:56:26;;;;;;;;;;;4.40;99.90;;;;;;5009116;28;20079;-79
2023/02/11 06:58:54;;;;;;;;;;;4.50;99.90;;;;;;5010108;28;20009;-79
2023/02/11 07:01:21;;;;;;;;;;;4.50;99.90;;;;;;5005493;28;20056;-78
2023/02/11 07:03:48;;;;;;;;;;;4.50;99.90;;;;;;5009204;28;19934;-79
2023/02/11 07:06:16;;;;;;;;;;;4.50;99.90;;;;;;5004076;28;20145;-79
2023/02/11 07:08:44;;;;;;;;;;;4.50;99.90;;;;;;5010315;28;20020;-77
2023/02/11 07:11:15;;;;;;;;;;;4.50;99.90;;;;;;5013331;28;20004;-77
2023/02/11 07:13:42;;;;;;;;;;;4.50;99.90;;;;;;5013696;28;19933;-77
2023/02/11 07:16:10;;;;;;;;;;;4.50;99.90;;;;;;5016137;28;19926;-78
2023/02/11 07:18:37;;;;;;;;;;;4.40;99.90;;;;;;5011894;28;19933;-77
2023/02/11 07:21:07;;;;;;;;;;;4.40;99.90;;;;;;4988570;28;19929;-76
2023/02/11 07:23:34;;;;;;;;;;;4.40;99.90;;;;;;5011438;28;20389;-76
2023/02/11 07:26:02;;;;;;;;;;;4.40;99.90;;;;;;4992971;28;19925;-78
2023/02/11 07:28:28;;;;;;;;;;;4.40;99.90;;;;;;5013896;28;19941;-76
2023/02/11 07:30:55;;;;;;;;;;;4.40;99.90;;;;;;5001857;28;19993;-77
2023/02/11 07:33:22;;;;;;;;;;;4.40;99.90;;;;;;5012853;28;19960;-78
2023/02/11 07:35:48;;;;;;;;;;;4.50;99.90;;;;;;5013719;28;19941;-76
2023/02/11 07:38:15;;;;;;;;;;;4.40;99.90;;;;;;4998345;28;19925;-79
2023/02/11 07:40:42;;;;;;;;;;;4.50;99.90;;;;;;4995370;28;19925;-77
2023/02/11 07:43:09;;;;;;;;;;;4.40;99.90;;;;;;5015529;28;20125;-77
2023/02/11 07:45:37;;;;;;;;;;;4.50;99.90;;;;;;5012985;28;20012;-77
2023/02/11 07:48:04;;;;;;;;;;;4.50;99.90;;;;;;4998980;28;19933;-77
2023/02/11 07:50:31;;;;;;;;;;;4.50;99.90;;;;;;5010011;28;19932;-76
2023/02/11 07:52:57;;;;;;;;;;;4.50;99.90;;;;;;5000596;28;20126;-77
2023/02/11 07:55:24;;;;;;;;;;;4.50;99.90;;;;;;5003729;28;19925;-77
2023/02/11 07:57:51;;;;;;;;;;;4.50;99.90;;;;;;5013630;28;20480;-77
2023/02/11 08:00:17;;;;;;;;;;;4.50;99.90;;;;;;5013563;28;20207;-79
2023/02/11 08:02:46;;;;;;;;;;;4.50;99.90;;;;;;5008245;28;19925;-78
2023/02/11 08:05:13;;;;;;;;;;;4.50;99.90;;;;;;4995144;28;19929;-77
2023/02/11 08:07:39;;;;;;;;;;;4.50;99.90;;;;;;5004964;28;20138;-77
2023/02/11 08:10:06;;;;;;;;;;;4.50;99.90;;;;;;4998352;28;19931;-78
2023/02/11 08:12:33;;;;;;;;;;;4.50;99.90;;;;;;5000866;28;19983;-77
2023/02/11 08:14:59;;;;;;;;;;;4.50;99.90;;;;;;5018140;28;19925;-77
2023/02/11 08:17:26;;;;;;;;;;;4.50;99.90;;;;;;5000572;28;20040;-77
2023/02/11 08:19:53;;;;;;;;;;;4.50;99.90;;;;;;5013539;28;19929;-78
2023/02/11 08:22:19;;;;;;;;;;;4.60;99.90;;;;;;4994805;28;19932;-78
2023/02/11 08:24:46;;;;;;;;;;;4.60;99.90;;;;;;5015462;28;19926;-78
2023/02/11 08:27:12;;;;;;;;;;;4.60;99.90;;;;;;4999791;28;20146;-78
2023/02/11 08:29:39;;;;;;;;;;;4.60;99.90;;;;;;5011175;28;19996;-78
2023/02/11 08:32:05;;;;;;;;;;;4.60;99.90;;;;;;4995395;28;19925;-78
2023/02/11 08:34:33;;;;;;;;;;;4.60;99.90;;;;;;5015908;28;20529;-77
2023/02/11 08:37:00;;;;;;;;;;;4.60;99.90;;;;;;5000899;28;19948;-77
2023/02/11 08:39:26;;;;;;;;;;;4.60;99.90;;;;;;4999286;28;19934;-77
2023/02/11 08:41:55;;;;;;;;;;;4.70;99.90;;;;;;5016097;28;20405;-77
2023/02/11 08:44:24;;;;;;;;;;;4.70;99.90;;;;;;4998537;28;19975;-76
2023/02/11 08:46:50;;;;;;;;;;;4.70;99.90;;;;;;4998875;28;19995;-77
2023/02/11 08:49:17;;;;;;;;;;;4.70;99.90;;;;;;4984981;28;20244;-77
2023/02/11 08:51:44;;;;;;;;;;;4.70;99.90;;;;;;4992865;28;19934;-77
2023/02/11 08:54:11;;;;;;;;;;;4.80;99.90;;;;;;4999344;28;20020;-77
2023/02/11 08:56:38;;;;;;;;;;;4.80;99.90;;;;;;5014390;28;19968;-77
2023/02/11 08:59:08;;;;;;;;;;;4.80;99.90;;;;;;4993496;28;20286;-77
2023/02/11 09:01:36;;;;;;;;;;;4.80;99.90;;;;;;4993341;28;19926;-77
2023/02/11 09:04:03;;;;;;;;;;;4.80;99.90;;;;;;5001551;28;19971;-77
2023/02/11 09:06:30;;;;;;;;;;;4.80;99.90;;;;;;5009344;28;19972;-77
2023/02/11 09:08:57;;;;;;;;;;;4.80;99.90;;;;;;5009006;28;19944;-77
2023/02/11 09:11:29;;;;;;;;;;;4.80;99.90;;;;;;4998281;28;20000;-77
2023/02/11 09:13:56;;;;;;;;;;;4.80;99.90;;;;;;4998405;28;20136;-78
2023/02/11 09:16:24;;;;;;;;;;;4.80;99.90;;;;;;5005880;28;19937;-79
2023/02/11 09:18:51;;;;;;;;;;;4.80;99.90;;;;;;5000240;28;19925;-78
2023/02/11 09:21:18;;;;;;;;;;;4.80;99.90;;;;;;5014953;28;19930;-78
2023/02/11 09:23:46;;;;;;;;;;;4.90;99.90;;;;;;4997337;28;19932;-78
2023/02/11 09:26:15;;;;;;;;;;;4.90;99.90;;;;;;4999119;28;19925;-77
2023/02/11 09:28:42;;;;;;;;;;;4.90;99.90;;;;;;5005091;28;20028;-77
2023/02/11 09:31:09;;;;;;;;;;;4.90;99.90;;;;;;4996402;28;20587;-77
2023/02/11 09:33:37;;;;;;;;;;;4.90;99.90;;;;;;5004821;28;20378;-77
2023/02/11 09:36:05;;;;;;;;;;;4.90;99.90;;;;;;4998801;28;20540;-77
2023/02/11 09:38:32;;;;;;;;;;;5.00;99.90;;;;;;5010356;28;19987;-78
2023/02/11 09:41:01;;;;;;;;;;;5.00;99.90;;;;;;4996935;28;19925;-77
2023/02/11 09:43:36;;;;;;;;;;;5.00;99.90;;;;;;4996804;28;19971;-76
2023/02/11 09:46:03;;;;;;;;;;;5.00;99.90;;;;;;4993786;28;20020;-77
2023/02/11 09:48:35;;;;;;;;;;;5.00;99.90;;;;;;5006950;28;19926;-78
2023/02/11 09:51:02;;;;;;;;;;;5.10;99.90;;;;;;5009030;28;19929;-78
2023/02/11 09:53:31;;;;;;;;;;;5.10;99.90;;;;;;5007201;28;19999;-77
2023/02/11 09:55:58;;;;;;;;;;;5.10;99.90;;;;;;5008779;28;19933;-77
2023/02/11 09:58:27;;;;;;;;;;;5.10;99.90;;;;;;4997734;28;19988;-77
2023/02/11 10:00:59;;;;;;;;;;;5.10;99.90;;;;;;4993060;28;19929;-77
2023/02/11 10:03:44;;;;;;;;;;;5.10;99.90;;;;;;5002802;28;19925;-77
2023/02/11 10:06:30;;;;;;;;;;;5.10;99.90;;;;;;5008595;28;19972;-77
2023/02/11 10:09:15;;;;;;;;;;;5.10;99.90;;;;;;4999530;28;20568;-77
2023/02/11 10:11:48;;;;;;;;;;;5.10;99.90;;;;;;5010803;28;19930;-77
2023/02/11 10:14:23;;;;;;;;;;;5.10;99.90;;;;;;4996768;28;19926;-76
2023/02/11 10:17:07;;;;;;;;;;;5.20;99.90;;;;;;5007464;28;19961;-77
2023/02/11 10:19:39;;;;;;;;;;;5.20;99.90;;;;;;4982287;28;19937;-77
2023/02/11 10:22:21;;;;;;;;;;;5.20;99.90;;;;;;4994120;28;19926;-77
2023/02/11 10:25:04;;;;;;;;;;;5.20;99.90;;;;;;4993789;28;19934;-77
2023/02/11 10:27:32;;;;;;;;;;;5.20;99.90;;;;;;4990182;28;19926;-78
2023/02/11 10:30:03;;;;;;;;;;;5.30;99.90;;;;;;5015197;28;21070;-77
2023/02/11 10:32:56;;;;;;;;;;;5.30;99.90;;;;;;5008816;28;19925;-77
2023/02/11 10:35:23;;;;;;;;;;;5.30;99.90;;;;;;4960115;28;19939;-77
2023/02/11 10:37:50;;;;;;;;;;;5.30;99.90;;;;;;5011004;28;19929;-76
2023/02/11 10:40:21;;;;;;;;;;;5.30;99.90;;;;;;5007132;28;19932;-76
2023/02/11 10:42:49;;;;;;;;;;;5.30;99.90;;;;;;4988832;28;19925;-77
2023/02/11 10:45:24;;;;;;;;;;;5.40;99.90;;;;;;5012518;28;19929;-77
2023/02/11 10:47:51;;;;;;;;;;;5.40;99.90;;;;;;5010253;28;20385;-76
2023/02/11 10:50:20;;;;;;;;;;;5.40;99.90;;;;;;4996161;28;19935;-77
2023/02/11 10:52:47;;;;;;;;;;;5.40;99.90;;;;;;5008250;28;19931;-78
2023/02/11 10:55:15;;;;;;;;;;;5.40;99.90;;;;;;5002228;28;20024;-76
2023/02/11 10:57:48;;;;;;;;;;;5.40;99.90;;;;;;4999691;28;20227;-76
2023/02/11 11:00:20;;;;;;;;;;;5.40;99.90;;;;;;5006600;28;20118;-77
2023/02/11 11:02:52;;;;;;;;;;;5.40;99.90;;;;;;4996269;28;20433;-77
2023/02/11 11:05:22;;;;;;;;;;;5.40;99.90;;;;;;5008911;28;19932;-77
2023/02/11 11:07:53;;;;;;;;;;;5.40;99.90;;;;;;4996098;28;19948;-77
2023/02/11 11:10:27;;;;;;;;;;;5.50;99.90;;;;;;4999522;28;19933;-77
2023/02/11 11:12:54;;;;;;;;;;;5.40;99.90;;;;;;5010308;28;20407;-77
2023/02/11 11:15:23;;;;;;;;;;;5.50;99.90;;;;;;5005290;28;19933;-77
2023/02/11 11:17:50;;;;;;;;;;;5.50;99.90;;;;;;4996527;28;19936;-76
2023/02/11 11:20:27;;;;;;;;;;;5.40;99.90;;;;;;5013685;28;19930;-77
2023/02/11 11:23:14;;;;;;;;;;;5.50;99.90;;;;;;5010987;28;20652;-77
2023/02/11 11:25:42;;;;;;;;;;;5.50;99.90;;;;;;4996849;28;19933;-77
2023/02/11 11:28:18;;;;;;;;;;;5.50;99.90;;;;;;5010424;28;20503;-77
2023/02/11 11:30:45;;;;;;;;;;;5.50;99.90;;;;;;5010154;28;19960;-77
2023/02/11 11:33:20;;;;;;;;;;;5.60;99.90;;;;;;5011761;28;20056;-77
2023/02/11 11:35:55;;;;;;;;;;;5.60;99.90;;;;;;5004892;28;20011;-77
2023/02/11 11:38:23;;;;;;;;;;;5.50;99.90;;;;;;5005688;28;20221;-77
2023/02/11 11:41:10;;;;;;;;;;;5.60;99.90;;;;;;5010059;28;20313;-76
2023/02/11 11:43:36;;;;;;;;;;;5.60;99.90;;;;;;4990704;28;20288;-76
2023/02/11 11:46:05;;;;;;;;;;;5.60;99.90;;;;;;5003458;28;20032;-77
2023/02/11 11:48:36;;;;;;;;;;;5.60;99.90;;;;;;5014572;28;20305;-76
2023/02/11 11:51:08;;;;;;;;;;;5.60;99.90;;;;;;4999980;28;19930;-77
2023/02/11 11:53:41;;;;;;;;;;;5.60;99.90;;;;;;5004871;28;19925;-77
2023/02/11 11:56:11;;;;;;;;;;;5.60;99.90;;;;;;5016387;28;19926;-77
2023/02/11 11:58:38;;;;;;;;;;;5.60;99.90;;;;;;4996216;28;20020;-77
2023/02/11 12:01:14;;;;;;;;;;;5.60;99.90;;;;;;5017384;28;19969;-77
2023/02/11 12:04:02;;;;;;;;;;;5.60;99.90;;;;;;4985517;28;19925;-77
2023/02/11 12:06:35;;;;;;;;;;;5.60;99.90;;;;;;5011194;28;20346;-77
2023/02/11 12:09:08;;;;;;;;;;;5.60;99.90;;;;;;5016878;28;20629;-77
2023/02/11 12:11:54;;;;;;;;;;;5.60;99.90;;;;;;5011318;28;20008;-77
2023/02/11 12:14:32;;;;;;;;;;;5.60;99.90;;;;;;5012138;28;19925;-77
2023/02/11 12:16:59;;;;;;;;;;;5.60;99.90;;;;;;4996473;28;20298;-77
2023/02/11 12:19:31;;;;;;;;;;;5.60;99.90;;;;;;5000389;28;20427;-77
2023/02/11 12:22:08;;;;;;;;;;;5.60;99.90;;;;;;4997385;28;19926;-77
2023/02/11 12:24:48;;;;;;;;;;;5.60;99.90;;;;;;5004333;28;19925;-76
2023/02/11 12:27:24;;;;;;;;;;;5.60;99.90;;;;;;5012529;28;19930;-77
2023/02/11 12:30:01;;;;;;;;;;;5.60;99.90;;;;;;5013028;28;19936;-77
2023/02/11 12:33:00;;;;;;;;;;;5.70;99.90;;;;;;5015265;28;19933;-77
2023/02/11 12:35:45;;;;;;;;;;;5.70;99.90;;;;;;4956826;28;19926;-77
2023/02/11 12:38:31;;;;;;;;;;;5.70;99.90;;;;;;5012337;28;20464;-77
2023/02/11 12:41:03;;;;;;;;;;;5.70;99.90;;;;;;5003132;28;19930;-77
2023/02/11 12:43:35;;;;;;;;;;;5.70;99.90;;;;;;5013698;28;19936;-77
2023/02/11 12:46:17;;;;;;;;;;;5.70;99.90;;;;;;4996623;28;19953;-77
2023/02/11 12:48:44;;;;;;;;;;;5.70;99.90;;;;;;5010127;28;20010;-76
2023/02/11 12:51:34;;;;;;;;;;;5.70;99.90;;;;;;4980927;28;19926;-78
2023/02/11 12:54:20;;;;;;;;;;;5.70;99.90;;;;;;5010078;28;19930;-77
2023/02/11 12:57:05;;;;;;;;;;;5.70;99.90;;;;;;5013661;28;20566;-77
2023/02/11 12:59:55;;;;;;;;;;;5.80;99.90;;;;;;4995382;28;20661;-77
2023/02/11 13:02:27;;;;;;;;;;;5.80;99.90;;;;;;5007356;28;19933;-77
2023/02/11 13:04:56;;;;;;;;;;;5.80;99.90;;;;;;5010308;28;19936;-78
2023/02/11 13:07:26;;;;;;;;;;;5.80;99.90;;;;;;5010270;28;20484;-77
2023/02/11 13:10:03;;;;;;;;;;;5.80;99.90;;;;;;5008597;28;19940;-76
2023/02/11 13:15:17;;;;;;;;;;;5.80;99.90;;;;;;4991961;28;19972;-77
2023/02/11 13:17:59;;;;;;;;;;;5.80;99.90;;;;;;4997338;28;19936;-77
2023/02/11 13:20:42;;;;;;;;;;;5.80;99.90;;;;;;4994107;28;19926;-76
2023/02/11 13:23:18;;;;;;;;;;;5.90;99.90;;;;;;4996354;28;19929;-77
2023/02/11 13:25:57;;;;;;;;;;;5.90;99.90;;;;;;5009843;28;19940;-77
2023/02/11 13:28:28;;;;;;;;;;;5.90;99.90;;;;;;4996508;28;20816;-77
2023/02/11 13:31:01;;;;;;;;;;;5.90;99.90;;;;;;5011607;28;19925;-76
2023/02/11 13:33:32;;;;;;;;;;;5.90;99.90;;;;;;4982059;28;20195;-76
2023/02/11 13:35:59;;;;;;;;;;;5.90;99.90;;;;;;4985658;28;19930;-77
2023/02/11 13:38:30;;;;;;;;;;;5.90;99.90;;;;;;4990391;28;19926;-76
2023/02/11 13:40:59;;;;;;;;;;;5.90;99.90;;;;;;4993035;28;19925;-76
2023/02/11 13:43:27;;;;;;;;;;;5.90;99.90;;;;;;4991484;28;19976;-77
2023/02/11 13:45:58;;;;;;;;;;;5.90;99.90;;;;;;5002884;28;19929;-76
2023/02/11 13:48:26;;;;;;;;;;;5.90;99.90;;;;;;5003027;28;20486;-76
2023/02/11 13:50:54;;;;;;;;;;;6.00;99.90;;;;;;5009069;28;20024;-77
2023/02/11 13:53:22;;;;;;;;;;;5.90;99.90;;;;;;5007863;28;21604;-76
2023/02/11 13:55:50;;;;;;;;;;;6.00;99.90;;;;;;5005689;28;20509;-77
2023/02/11 13:58:26;;;;;;;;;;;6.00;99.90;;;;;;5004737;28;19932;-76
2023/02/11 14:00:52;;;;;;;;;;;6.00;99.90;;;;;;5006970;28;19932;-76
2023/02/11 14:08:59;;;;;;;;;;;6.00;99.90;;;;;;4994814;28;19925;-76
2023/02/11 14:11:32;;;;;;;;;;;6.00;99.90;;;;;;4991968;28;19926;-76
2023/02/11 14:14:11;;;;;;;;;;;6.00;99.90;;;;;;5005817;28;19925;-76
2023/02/11 14:17:00;;;;;;;;;;;6.10;99.90;;;;;;4993233;28;19926;-76
2023/02/11 14:19:32;;;;;;;;;;;6.10;99.90;;;;;;4994243;28;19929;-76
2023/02/11 14:22:03;;;;;;;;;;;6.10;99.90;;;;;;4995200;28;19925;-76
2023/02/11 14:24:29;;;;;;;;;;;6.00;99.90;;;;;;5012277;28;19929;-76
2023/02/11 14:27:03;;;;;;;;;;;6.00;99.90;;;;;;5012688;28;19932;-76
2023/02/11 14:29:33;;;;;;;;;;;6.10;99.90;;;;;;4973813;28;19937;-76
2023/02/11 14:32:12;;;;;;;;;;;6.00;99.90;;;;;;5010560;28;19925;-76
2023/02/11 14:34:39;;;;;;;;;;;6.10;99.90;;;;;;4992158;28;20040;-76
2023/02/11 14:37:12;;;;;;;;;;;6.10;99.90;;;;;;4994117;28;19938;-76
2023/02/11 14:39:48;;;;;;;;;;;6.10;99.90;;;;;;4996823;28;19929;-76
2023/02/11 14:42:17;;;;;;;;;;;6.10;99.90;;;;;;5013906;28;19965;-76
2023/02/11 14:44:45;;;;;;;;;;;6.10;99.90;;;;;;5006869;28;19936;-76
2023/02/11 14:47:16;;;;;;;;;;;6.10;99.90;;;;;;4995576;28;19932;-76
2023/02/11 14:49:43;;;;;;;;;;;6.10;99.90;;;;;;4991976;28;19926;-76
2023/02/11 14:52:27;;;;;;;;;;;6.10;99.90;;;;;;5015516;28;20454;-76
2023/02/11 14:55:29;;;;;;;;;;;6.10;99.90;;;;;;5010290;28;20246;-76
2023/02/11 14:58:13;;;;;;;;;;;6.10;99.90;;;;;;4898366;29;19937;-75
2023/02/11 15:00:46;;;;;;;;;;;6.10;99.90;;;;;;4986097;28;20016;-76